sensor_id;sensor_type;location;lat;lon;timestamp;temperature;humidity
67974;DHT22;54756;51.140;6.952;2023-06-19T00:00:02;25.40;1.00
67974;DHT22;54756;51.140;6.952;2023-06-19T00:02:07;25.40;1.00
67974;DHT22;54756;51.140;6.952;2023-06-19T00:04:09;25.40;1.00
67974;DHT22;54756;51.140;6.952;2023-06-19T00:06:10;25.40;1.00
67974;DHT22;54756;51.140;6.952;2023-06-19T00:08:12;25.40;1.00
67974;DHT22;54756;51.140;6.952;2023-06-19T00:10:13;25.40;1.00
67974;DHT22;54756;51.140;6.952;2023-06-19T00:12:13;25.40;1.00
67974;DHT22;54756;51.140;6.952;2023-06-19T00:14:14;25.40;1.00
67974;DHT22;54756;51.140;6.952;2023-06-19T00:16:15;25.40;1.00
67974;DHT22;54756;51.140;6.952;2023-06-19T00:18:15;25.30;1.00
67974;DHT22;54756;51.140;6.952;2023-06-19T00:20:17;25.30;1.00
67974;DHT22;54756;51.140;6.952;2023-06-19T00:22:18;25.30;1.00
67974;DHT22;54756;51.140;6.952;2023-06-19T00:24:19;25.30;1.00
67974;DHT22;54756;51.140;6.952;2023-06-19T00:26:19;25.30;1.00
67974;DHT22;54756;51.140;6.952;2023-06-19T00:28:22;25.30;1.00
67974;DHT22;54756;51.140;6.952;2023-06-19T00:30:23;25.30;1.00
67974;DHT22;54756;51.140;6.952;2023-06-19T00:32:23;25.30;1.00
67974;DHT22;54756;51.140;6.952;2023-06-19T00:34:24;25.30;1.00
67974;DHT22;54756;51.140;6.952;2023-06-19T00:36:24;25.30;1.00
67974;DHT22;54756;51.140;6.952;2023-06-19T00:38:26;25.30;1.00
67974;DHT22;54756;51.140;6.952;2023-06-19T00:40:28;25.30;1.00
67974;DHT22;54756;51.140;6.952;2023-06-19T00:42:29;25.30;1.00
67974;DHT22;54756;51.140;6.952;2023-06-19T00:44:30;25.30;1.00
67974;DHT22;54756;51.140;6.952;2023-06-19T00:46:31;25.30;1.00
67974;DHT22;54756;51.140;6.952;2023-06-19T00:48:34;25.30;1.00
67974;DHT22;54756;51.140;6.952;2023-06-19T00:50:35;25.30;1.00
67974;DHT22;54756;51.140;6.952;2023-06-19T00:52:37;25.30;1.00
67974;DHT22;54756;51.140;6.952;2023-06-19T00:54:38;25.30;1.00
67974;DHT22;54756;51.140;6.952;2023-06-19T00:56:39;25.20;1.00
67974;DHT22;54756;51.140;6.952;2023-06-19T00:58:41;25.20;1.00
67974;DHT22;54756;51.140;6.952;2023-06-19T01:00:41;25.30;1.00
67974;DHT22;54756;51.140;6.952;2023-06-19T01:02:42;25.30;1.00
67974;DHT22;54756;51.140;6.952;2023-06-19T01:04:43;25.20;1.00
67974;DHT22;54756;51.140;6.952;2023-06-19T01:06:53;25.20;1.00
67974;DHT22;54756;51.140;6.952;2023-06-19T01:09:08;25.30;1.00
67974;DHT22;54756;51.140;6.952;2023-06-19T01:11:11;25.20;1.00
67974;DHT22;54756;51.140;6.952;2023-06-19T01:15:31;25.20;1.00
67974;DHT22;54756;51.140;6.952;2023-06-19T01:17:32;25.20;1.00
67974;DHT22;54756;51.140;6.952;2023-06-19T01:19:33;25.20;1.00
67974;DHT22;54756;51.140;6.952;2023-06-19T01:21:34;25.20;1.00
67974;DHT22;54756;51.140;6.952;2023-06-19T01:23:34;25.20;1.00
67974;DHT22;54756;51.140;6.952;2023-06-19T01:25:35;25.20;1.00
67974;DHT22;54756;51.140;6.952;2023-06-19T01:27:36;25.20;1.00
67974;DHT22;54756;51.140;6.952;2023-06-19T01:29:38;25.20;1.00
67974;DHT22;54756;51.140;6.952;2023-06-19T01:31:45;25.20;1.00
67974;DHT22;54756;51.140;6.952;2023-06-19T01:33:47;25.20;1.00
67974;DHT22;54756;51.140;6.952;2023-06-19T01:35:50;25.20;1.00
67974;DHT22;54756;51.140;6.952;2023-06-19T01:37:52;25.10;1.00
67974;DHT22;54756;51.140;6.952;2023-06-19T01:39:55;25.10;1.00
67974;DHT22;54756;51.140;6.952;2023-06-19T01:41:57;25.10;1.00
67974;DHT22;54756;51.140;6.952;2023-06-19T01:43:59;25.10;1.00
67974;DHT22;54756;51.140;6.952;2023-06-19T01:46:00;25.10;1.00
67974;DHT22;54756;51.140;6.952;2023-06-19T01:48:01;25.10;1.00
67974;DHT22;54756;51.140;6.952;2023-06-19T01:50:02;25.10;1.00
67974;DHT22;54756;51.140;6.952;2023-06-19T01:52:03;25.10;1.00
67974;DHT22;54756;51.140;6.952;2023-06-19T01:54:04;25.10;1.00
67974;DHT22;54756;51.140;6.952;2023-06-19T01:56:04;25.10;1.00
67974;DHT22;54756;51.140;6.952;2023-06-19T01:58:05;25.10;1.00
67974;DHT22;54756;51.140;6.952;2023-06-19T02:00:06;25.10;1.00
67974;DHT22;54756;51.140;6.952;2023-06-19T02:02:10;25.10;1.00
67974;DHT22;54756;51.140;6.952;2023-06-19T02:04:11;25.10;1.00
67974;DHT22;54756;51.140;6.952;2023-06-19T02:06:11;25.10;1.00
67974;DHT22;54756;51.140;6.952;2023-06-19T02:08:12;25.10;1.00
67974;DHT22;54756;51.140;6.952;2023-06-19T02:10:13;25.10;1.00
67974;DHT22;54756;51.140;6.952;2023-06-19T02:12:13;25.10;1.00
67974;DHT22;54756;51.140;6.952;2023-06-19T02:14:14;25.10;1.00
67974;DHT22;54756;51.140;6.952;2023-06-19T02:16:15;25.10;1.00
67974;DHT22;54756;51.140;6.952;2023-06-19T02:18:15;25.10;1.00
67974;DHT22;54756;51.140;6.952;2023-06-19T02:20:16;25.10;1.00
67974;DHT22;54756;51.140;6.952;2023-06-19T02:22:18;25.10;1.00
67974;DHT22;54756;51.140;6.952;2023-06-19T02:24:18;25.00;1.00
67974;DHT22;54756;51.140;6.952;2023-06-19T02:26:19;25.00;1.00
67974;DHT22;54756;51.140;6.952;2023-06-19T02:28:19;25.00;1.00
67974;DHT22;54756;51.140;6.952;2023-06-19T02:30:23;25.00;1.00
67974;DHT22;54756;51.140;6.952;2023-06-19T02:32:23;25.00;1.00
67974;DHT22;54756;51.140;6.952;2023-06-19T02:34:24;25.00;1.00
67974;DHT22;54756;51.140;6.952;2023-06-19T02:36:25;25.00;1.00
67974;DHT22;54756;51.140;6.952;2023-06-19T02:38:26;25.00;1.00
67974;DHT22;54756;51.140;6.952;2023-06-19T02:40:27;25.00;1.00
67974;DHT22;54756;51.140;6.952;2023-06-19T02:42:27;25.00;1.00
67974;DHT22;54756;51.140;6.952;2023-06-19T02:44:28;25.00;1.00
67974;DHT22;54756;51.140;6.952;2023-06-19T02:46:28;25.00;1.00
67974;DHT22;54756;51.140;6.952;2023-06-19T02:48:29;25.00;1.00
67974;DHT22;54756;51.140;6.952;2023-06-19T02:50:29;25.00;1.00
67974;DHT22;54756;51.140;6.952;2023-06-19T02:52:30;25.00;1.00
67974;DHT22;54756;51.140;6.952;2023-06-19T02:54:30;25.00;1.00
67974;DHT22;54756;51.140;6.952;2023-06-19T02:56:31;25.00;1.00
67974;DHT22;54756;51.140;6.952;2023-06-19T02:58:31;24.90;1.00
67974;DHT22;54756;51.140;6.952;2023-06-19T03:00:32;24.90;1.00
67974;DHT22;54756;51.140;6.952;2023-06-19T03:02:32;25.00;1.00
67974;DHT22;54756;51.140;6.952;2023-06-19T03:04:33;24.90;1.00
67974;DHT22;54756;51.140;6.952;2023-06-19T03:06:33;24.90;1.00
67974;DHT22;54756;51.140;6.952;2023-06-19T03:08:39;24.90;1.00
67974;DHT22;54756;51.140;6.952;2023-06-19T03:10:40;24.90;1.00
67974;DHT22;54756;51.140;6.952;2023-06-19T03:12:40;25.00;1.00
67974;DHT22;54756;51.140;6.952;2023-06-19T03:14:41;24.90;1.00
67974;DHT22;54756;51.140;6.952;2023-06-19T03:16:41;24.90;1.00
67974;DHT22;54756;51.140;6.952;2023-06-19T03:18:43;24.90;1.00
67974;DHT22;54756;51.140;6.952;2023-06-19T03:20:45;24.90;1.00
67974;DHT22;54756;51.140;6.952;2023-06-19T03:22:45;24.90;1.00
67974;DHT22;54756;51.140;6.952;2023-06-19T03:24:46;24.90;1.00
67974;DHT22;54756;51.140;6.952;2023-06-19T03:26:47;24.90;1.00
67974;DHT22;54756;51.140;6.952;2023-06-19T03:28:47;24.90;1.00
67974;DHT22;54756;51.140;6.952;2023-06-19T03:30:48;24.90;1.00
67974;DHT22;54756;51.140;6.952;2023-06-19T03:32:48;24.90;1.00
67974;DHT22;54756;51.140;6.952;2023-06-19T03:34:49;24.90;1.20
67974;DHT22;54756;51.140;6.952;2023-06-19T03:36:49;24.90;2.90
67974;DHT22;54756;51.140;6.952;2023-06-19T03:38:51;24.90;4.90
67974;DHT22;54756;51.140;6.952;2023-06-19T03:40:52;24.90;6.20
67974;DHT22;54756;51.140;6.952;2023-06-19T03:42:52;24.80;7.30
67974;DHT22;54756;51.140;6.952;2023-06-19T03:44:53;24.90;8.00
67974;DHT22;54756;51.140;6.952;2023-06-19T03:46:53;24.90;8.60
67974;DHT22;54756;51.140;6.952;2023-06-19T03:48:54;24.80;9.00
67974;DHT22;54756;51.140;6.952;2023-06-19T03:50:54;24.90;9.20
67974;DHT22;54756;51.140;6.952;2023-06-19T03:52:55;24.80;10.30
67974;DHT22;54756;51.140;6.952;2023-06-19T03:54:56;24.80;10.70
67974;DHT22;54756;51.140;6.952;2023-06-19T03:56:56;24.80;11.60
67974;DHT22;54756;51.140;6.952;2023-06-19T03:58:57;24.80;12.40
67974;DHT22;54756;51.140;6.952;2023-06-19T04:00:57;24.80;13.10
67974;DHT22;54756;51.140;6.952;2023-06-19T04:02:58;24.80;13.70
67974;DHT22;54756;51.140;6.952;2023-06-19T04:04:58;24.80;14.10
67974;DHT22;54756;51.140;6.952;2023-06-19T04:06:59;24.80;14.50
67974;DHT22;54756;51.140;6.952;2023-06-19T04:09:00;24.80;15.10
67974;DHT22;54756;51.140;6.952;2023-06-19T04:11:00;24.80;15.50
67974;DHT22;54756;51.140;6.952;2023-06-19T04:13:01;24.70;15.50
67974;DHT22;54756;51.140;6.952;2023-06-19T04:15:01;24.70;15.50
67974;DHT22;54756;51.140;6.952;2023-06-19T04:17:02;24.70;15.60
67974;DHT22;54756;51.140;6.952;2023-06-19T04:19:02;24.70;16.00
67974;DHT22;54756;51.140;6.952;2023-06-19T04:21:03;24.70;16.60
67974;DHT22;54756;51.140;6.952;2023-06-19T04:23:04;24.70;16.90
67974;DHT22;54756;51.140;6.952;2023-06-19T04:25:09;24.70;16.80
67974;DHT22;54756;51.140;6.952;2023-06-19T04:27:11;24.70;17.60
67974;DHT22;54756;51.140;6.952;2023-06-19T04:29:11;24.70;17.60
67974;DHT22;54756;51.140;6.952;2023-06-19T04:31:17;24.60;17.40
67974;DHT22;54756;51.140;6.952;2023-06-19T04:33:18;24.60;17.50
67974;DHT22;54756;51.140;6.952;2023-06-19T04:35:21;24.60;17.20
67974;DHT22;54756;51.140;6.952;2023-06-19T04:37:24;24.60;17.20
67974;DHT22;54756;51.140;6.952;2023-06-19T04:39:24;24.60;17.40
67974;DHT22;54756;51.140;6.952;2023-06-19T04:41:25;24.60;17.90
67974;DHT22;54756;51.140;6.952;2023-06-19T04:43:26;24.60;18.30
67974;DHT22;54756;51.140;6.952;2023-06-19T04:45:26;24.60;18.20
67974;DHT22;54756;51.140;6.952;2023-06-19T04:47:26;24.60;18.30
67974;DHT22;54756;51.140;6.952;2023-06-19T04:49:28;24.60;18.00
67974;DHT22;54756;51.140;6.952;2023-06-19T04:51:32;24.60;18.00
67974;DHT22;54756;51.140;6.952;2023-06-19T04:53:33;24.60;18.30
67974;DHT22;54756;51.140;6.952;2023-06-19T04:55:33;24.60;18.50
67974;DHT22;54756;51.140;6.952;2023-06-19T04:57:34;24.60;18.20
67974;DHT22;54756;51.140;6.952;2023-06-19T04:59:34;24.60;18.10
67974;DHT22;54756;51.140;6.952;2023-06-19T05:01:35;24.60;18.70
67974;DHT22;54756;51.140;6.952;2023-06-19T05:03:35;24.60;18.90
67974;DHT22;54756;51.140;6.952;2023-06-19T05:05:36;24.60;19.20
67974;DHT22;54756;51.140;6.952;2023-06-19T05:07:36;24.60;19.30
67974;DHT22;54756;51.140;6.952;2023-06-19T05:09:37;24.60;19.50
67974;DHT22;54756;51.140;6.952;2023-06-19T05:11:37;24.60;19.40
67974;DHT22;54756;51.140;6.952;2023-06-19T05:13:38;24.60;19.60
67974;DHT22;54756;51.140;6.952;2023-06-19T05:15:39;24.50;19.60
67974;DHT22;54756;51.140;6.952;2023-06-19T05:17:39;24.50;19.60
67974;DHT22;54756;51.140;6.952;2023-06-19T05:19:40;24.50;19.70
67974;DHT22;54756;51.140;6.952;2023-06-19T05:21:40;24.50;19.90
67974;DHT22;54756;51.140;6.952;2023-06-19T05:23:41;24.50;20.20
67974;DHT22;54756;51.140;6.952;2023-06-19T05:25:41;24.50;20.30
67974;DHT22;54756;51.140;6.952;2023-06-19T05:27:44;24.50;20.40
67974;DHT22;54756;51.140;6.952;2023-06-19T05:29:44;24.50;20.60
67974;DHT22;54756;51.140;6.952;2023-06-19T05:31:45;24.50;21.00
67974;DHT22;54756;51.140;6.952;2023-06-19T05:33:45;24.50;21.00
67974;DHT22;54756;51.140;6.952;2023-06-19T05:35:46;24.50;21.30
67974;DHT22;54756;51.140;6.952;2023-06-19T05:37:52;24.50;21.10
67974;DHT22;54756;51.140;6.952;2023-06-19T05:39:53;24.50;21.00
67974;DHT22;54756;51.140;6.952;2023-06-19T05:41:53;24.50;19.70
67974;DHT22;54756;51.140;6.952;2023-06-19T05:43:54;24.40;19.70
67974;DHT22;54756;51.140;6.952;2023-06-19T05:45:55;24.50;20.00
67974;DHT22;54756;51.140;6.952;2023-06-19T05:47:59;24.50;20.30
67974;DHT22;54756;51.140;6.952;2023-06-19T05:50:00;24.50;20.30
67974;DHT22;54756;51.140;6.952;2023-06-19T05:52:00;24.40;20.30
67974;DHT22;54756;51.140;6.952;2023-06-19T05:54:01;24.50;20.30
67974;DHT22;54756;51.140;6.952;2023-06-19T05:56:04;24.40;20.30
67974;DHT22;54756;51.140;6.952;2023-06-19T05:58:05;24.50;20.10
67974;DHT22;54756;51.140;6.952;2023-06-19T06:00:07;24.40;20.30
67974;DHT22;54756;51.140;6.952;2023-06-19T06:02:11;24.40;19.70
67974;DHT22;54756;51.140;6.952;2023-06-19T06:04:12;24.40;19.90
67974;DHT22;54756;51.140;6.952;2023-06-19T06:06:14;24.40;19.80
67974;DHT22;54756;51.140;6.952;2023-06-19T06:08:14;24.40;19.60
67974;DHT22;54756;51.140;6.952;2023-06-19T06:10:15;24.40;19.60
67974;DHT22;54756;51.140;6.952;2023-06-19T06:12:17;24.40;19.60
67974;DHT22;54756;51.140;6.952;2023-06-19T06:14:17;24.40;19.20
67974;DHT22;54756;51.140;6.952;2023-06-19T06:16:18;24.40;19.40
67974;DHT22;54756;51.140;6.952;2023-06-19T06:18:19;24.40;19.20
67974;DHT22;54756;51.140;6.952;2023-06-19T06:20:19;24.40;19.30
67974;DHT22;54756;51.140;6.952;2023-06-19T06:22:20;24.40;18.80
67974;DHT22;54756;51.140;6.952;2023-06-19T06:24:20;24.40;18.70
67974;DHT22;54756;51.140;6.952;2023-06-19T06:26:21;24.40;18.70
67974;DHT22;54756;51.140;6.952;2023-06-19T06:28:21;24.40;18.60
67974;DHT22;54756;51.140;6.952;2023-06-19T06:30:22;24.40;18.60
67974;DHT22;54756;51.140;6.952;2023-06-19T06:32:24;24.40;18.50
67974;DHT22;54756;51.140;6.952;2023-06-19T06:34:24;24.40;18.50
67974;DHT22;54756;51.140;6.952;2023-06-19T06:36:25;24.40;19.00
67974;DHT22;54756;51.140;6.952;2023-06-19T06:38:26;24.40;19.00
67974;DHT22;54756;51.140;6.952;2023-06-19T06:40:26;24.40;19.20
67974;DHT22;54756;51.140;6.952;2023-06-19T06:42:27;24.40;19.50
67974;DHT22;54756;51.140;6.952;2023-06-19T06:44:28;24.40;19.70
67974;DHT22;54756;51.140;6.952;2023-06-19T06:46:29;24.40;20.00
67974;DHT22;54756;51.140;6.952;2023-06-19T06:48:29;24.40;20.30
67974;DHT22;54756;51.140;6.952;2023-06-19T06:50:30;24.40;20.10
67974;DHT22;54756;51.140;6.952;2023-06-19T06:52:32;24.40;20.20
67974;DHT22;54756;51.140;6.952;2023-06-19T06:54:33;24.40;20.40
67974;DHT22;54756;51.140;6.952;2023-06-19T06:56:33;24.40;20.30
67974;DHT22;54756;51.140;6.952;2023-06-19T06:58:34;24.40;20.80
67974;DHT22;54756;51.140;6.952;2023-06-19T07:00:34;24.40;21.00
67974;DHT22;54756;51.140;6.952;2023-06-19T07:02:35;24.40;21.00
67974;DHT22;54756;51.140;6.952;2023-06-19T07:04:37;24.40;21.10
67974;DHT22;54756;51.140;6.952;2023-06-19T07:06:37;24.40;21.40
67974;DHT22;54756;51.140;6.952;2023-06-19T07:08:38;24.40;21.60
67974;DHT22;54756;51.140;6.952;2023-06-19T07:10:41;24.40;21.60
67974;DHT22;54756;51.140;6.952;2023-06-19T07:12:45;24.40;21.30
67974;DHT22;54756;51.140;6.952;2023-06-19T07:14:46;24.40;21.90
67974;DHT22;54756;51.140;6.952;2023-06-19T07:16:47;24.40;22.10
67974;DHT22;54756;51.140;6.952;2023-06-19T07:18:47;24.40;22.40
67974;DHT22;54756;51.140;6.952;2023-06-19T07:20:48;24.40;22.70
67974;DHT22;54756;51.140;6.952;2023-06-19T07:22:50;24.40;22.90
67974;DHT22;54756;51.140;6.952;2023-06-19T07:24:51;24.40;23.30
67974;DHT22;54756;51.140;6.952;2023-06-19T07:26:52;24.40;22.90
67974;DHT22;54756;51.140;6.952;2023-06-19T07:28:53;24.40;23.30
67974;DHT22;54756;51.140;6.952;2023-06-19T07:30:54;24.40;23.40
67974;DHT22;54756;51.140;6.952;2023-06-19T07:32:54;24.40;23.40
67974;DHT22;54756;51.140;6.952;2023-06-19T07:34:55;24.40;23.90
67974;DHT22;54756;51.140;6.952;2023-06-19T07:36:55;24.40;22.60
67974;DHT22;54756;51.140;6.952;2023-06-19T07:38:56;24.40;22.80
67974;DHT22;54756;51.140;6.952;2023-06-19T07:40:56;24.40;22.70
67974;DHT22;54756;51.140;6.952;2023-06-19T07:42:57;24.40;23.20
67974;DHT22;54756;51.140;6.952;2023-06-19T07:44:58;24.40;23.40
67974;DHT22;54756;51.140;6.952;2023-06-19T07:46:58;24.40;23.90
67974;DHT22;54756;51.140;6.952;2023-06-19T07:48:59;24.40;24.00
67974;DHT22;54756;51.140;6.952;2023-06-19T07:50:59;24.40;24.50
67974;DHT22;54756;51.140;6.952;2023-06-19T07:53:00;24.40;24.60
67974;DHT22;54756;51.140;6.952;2023-06-19T07:55:00;24.40;25.00
67974;DHT22;54756;51.140;6.952;2023-06-19T07:57:01;24.40;25.10
67974;DHT22;54756;51.140;6.952;2023-06-19T07:59:02;24.40;25.30
67974;DHT22;54756;51.140;6.952;2023-06-19T08:01:02;24.40;25.50
67974;DHT22;54756;51.140;6.952;2023-06-19T08:03:03;24.40;25.20
67974;DHT22;54756;51.140;6.952;2023-06-19T08:05:03;24.40;25.80
67974;DHT22;54756;51.140;6.952;2023-06-19T08:07:04;24.40;26.00
67974;DHT22;54756;51.140;6.952;2023-06-19T08:09:05;24.40;26.20
67974;DHT22;54756;51.140;6.952;2023-06-19T08:11:06;24.40;26.50
67974;DHT22;54756;51.140;6.952;2023-06-19T08:13:06;24.40;26.90
67974;DHT22;54756;51.140;6.952;2023-06-19T08:15:07;24.40;27.10
67974;DHT22;54756;51.140;6.952;2023-06-19T08:17:08;24.30;27.10
67974;DHT22;54756;51.140;6.952;2023-06-19T08:19:09;24.40;27.50
67974;DHT22;54756;51.140;6.952;2023-06-19T08:21:09;24.40;27.50
67974;DHT22;54756;51.140;6.952;2023-06-19T08:23:10;24.30;27.50
67974;DHT22;54756;51.140;6.952;2023-06-19T08:25:10;24.30;27.20
67974;DHT22;54756;51.140;6.952;2023-06-19T08:27:11;24.30;26.60
67974;DHT22;54756;51.140;6.952;2023-06-19T08:29:11;24.30;25.90
67974;DHT22;54756;51.140;6.952;2023-06-19T08:31:12;24.30;25.50
67974;DHT22;54756;51.140;6.952;2023-06-19T08:33:13;24.30;25.50
67974;DHT22;54756;51.140;6.952;2023-06-19T08:35:15;24.30;25.50
67974;DHT22;54756;51.140;6.952;2023-06-19T08:37:16;24.30;24.90
67974;DHT22;54756;51.140;6.952;2023-06-19T08:39:18;24.30;24.40
67974;DHT22;54756;51.140;6.952;2023-06-19T08:41:20;24.30;24.90
67974;DHT22;54756;51.140;6.952;2023-06-19T08:43:21;24.30;24.50
67974;DHT22;54756;51.140;6.952;2023-06-19T08:45:22;24.30;23.90
67974;DHT22;54756;51.140;6.952;2023-06-19T08:47:29;24.30;23.30
67974;DHT22;54756;51.140;6.952;2023-06-19T08:49:31;24.30;22.70
67974;DHT22;54756;51.140;6.952;2023-06-19T08:51:33;24.30;22.30
67974;DHT22;54756;51.140;6.952;2023-06-19T08:53:35;24.30;21.90
67974;DHT22;54756;51.140;6.952;2023-06-19T08:55:36;24.30;21.20
67974;DHT22;54756;51.140;6.952;2023-06-19T08:57:40;24.30;20.40
67974;DHT22;54756;51.140;6.952;2023-06-19T08:59:50;24.30;19.80
67974;DHT22;54756;51.140;6.952;2023-06-19T09:01:53;24.30;19.30
67974;DHT22;54756;51.140;6.952;2023-06-19T09:03:53;24.40;19.00
67974;DHT22;54756;51.140;6.952;2023-06-19T09:05:54;24.40;18.60
67974;DHT22;54756;51.140;6.952;2023-06-19T09:07:57;24.40;18.30
67974;DHT22;54756;51.140;6.952;2023-06-19T09:09:57;24.40;18.10
67974;DHT22;54756;51.140;6.952;2023-06-19T09:12:08;24.40;17.90
67974;DHT22;54756;51.140;6.952;2023-06-19T09:14:11;24.40;17.50
67974;DHT22;54756;51.140;6.952;2023-06-19T09:16:11;24.40;16.60
67974;DHT22;54756;51.140;6.952;2023-06-19T09:18:12;24.40;16.40
67974;DHT22;54756;51.140;6.952;2023-06-19T09:20:13;24.40;16.30
67974;DHT22;54756;51.140;6.952;2023-06-19T09:22:13;24.50;16.00
67974;DHT22;54756;51.140;6.952;2023-06-19T09:24:14;24.50;15.90
67974;DHT22;54756;51.140;6.952;2023-06-19T09:26:15;24.50;15.80
67974;DHT22;54756;51.140;6.952;2023-06-19T09:28:26;24.50;15.60
67974;DHT22;54756;51.140;6.952;2023-06-19T09:30:27;24.50;15.20
67974;DHT22;54756;51.140;6.952;2023-06-19T09:32:28;24.50;15.00
67974;DHT22;54756;51.140;6.952;2023-06-19T09:34:28;24.60;14.80
67974;DHT22;54756;51.140;6.952;2023-06-19T09:36:31;24.60;14.70
67974;DHT22;54756;51.140;6.952;2023-06-19T09:38:38;24.60;14.40
67974;DHT22;54756;51.140;6.952;2023-06-19T09:40:40;24.60;14.10
67974;DHT22;54756;51.140;6.952;2023-06-19T09:42:42;24.60;13.70
67974;DHT22;54756;51.140;6.952;2023-06-19T09:44:45;24.60;13.00
67974;DHT22;54756;51.140;6.952;2023-06-19T09:46:48;24.60;12.50
67974;DHT22;54756;51.140;6.952;2023-06-19T09:48:51;24.60;12.40
67974;DHT22;54756;51.140;6.952;2023-06-19T09:51:05;24.60;12.20
67974;DHT22;54756;51.140;6.952;2023-06-19T09:53:06;24.60;12.50
67974;DHT22;54756;51.140;6.952;2023-06-19T09:55:07;24.60;12.20
67974;DHT22;54756;51.140;6.952;2023-06-19T09:57:10;24.60;12.50
67974;DHT22;54756;51.140;6.952;2023-06-19T09:59:11;24.60;12.90
67974;DHT22;54756;51.140;6.952;2023-06-19T10:01:14;24.60;13.00
67974;DHT22;54756;51.140;6.952;2023-06-19T10:03:15;24.70;13.60
67974;DHT22;54756;51.140;6.952;2023-06-19T10:05:16;24.70;13.70
67974;DHT22;54756;51.140;6.952;2023-06-19T10:07:22;24.70;13.80
67974;DHT22;54756;51.140;6.952;2023-06-19T10:09:23;24.70;14.00
67974;DHT22;54756;51.140;6.952;2023-06-19T10:11:24;24.70;14.10
67974;DHT22;54756;51.140;6.952;2023-06-19T10:13:39;24.70;14.30
67974;DHT22;54756;51.140;6.952;2023-06-19T10:15:41;24.70;14.50
67974;DHT22;54756;51.140;6.952;2023-06-19T10:17:46;24.70;14.70
67974;DHT22;54756;51.140;6.952;2023-06-19T10:19:51;24.70;14.80
67974;DHT22;54756;51.140;6.952;2023-06-19T10:21:54;24.70;15.10
67974;DHT22;54756;51.140;6.952;2023-06-19T10:23:56;24.70;15.20
67974;DHT22;54756;51.140;6.952;2023-06-19T10:25:58;24.70;15.00
67974;DHT22;54756;51.140;6.952;2023-06-19T10:27:59;24.70;14.90
67974;DHT22;54756;51.140;6.952;2023-06-19T10:30:00;24.70;14.90
67974;DHT22;54756;51.140;6.952;2023-06-19T10:32:00;24.80;15.10
67974;DHT22;54756;51.140;6.952;2023-06-19T10:34:03;24.80;15.40
67974;DHT22;54756;51.140;6.952;2023-06-19T10:36:14;24.80;15.60
67974;DHT22;54756;51.140;6.952;2023-06-19T10:38:16;24.80;15.70
67974;DHT22;54756;51.140;6.952;2023-06-19T10:40:17;24.80;15.80
67974;DHT22;54756;51.140;6.952;2023-06-19T10:42:18;24.80;16.00
67974;DHT22;54756;51.140;6.952;2023-06-19T10:44:19;24.80;16.20
67974;DHT22;54756;51.140;6.952;2023-06-19T10:46:24;24.80;16.10
67974;DHT22;54756;51.140;6.952;2023-06-19T10:48:29;24.80;16.10
67974;DHT22;54756;51.140;6.952;2023-06-19T10:50:34;24.80;16.00
67974;DHT22;54756;51.140;6.952;2023-06-19T10:52:35;24.80;16.00
67974;DHT22;54756;51.140;6.952;2023-06-19T10:54:36;24.80;16.10
67974;DHT22;54756;51.140;6.952;2023-06-19T10:56:38;24.90;16.10
67974;DHT22;54756;51.140;6.952;2023-06-19T10:58:38;24.90;16.10
67974;DHT22;54756;51.140;6.952;2023-06-19T11:00:39;24.90;16.10
67974;DHT22;54756;51.140;6.952;2023-06-19T11:02:40;24.90;16.20
67974;DHT22;54756;51.140;6.952;2023-06-19T11:04:43;24.90;16.30
67974;DHT22;54756;51.140;6.952;2023-06-19T11:06:44;24.90;16.40
67974;DHT22;54756;51.140;6.952;2023-06-19T11:08:53;24.90;16.50
67974;DHT22;54756;51.140;6.952;2023-06-19T11:10:55;24.90;16.50
67974;DHT22;54756;51.140;6.952;2023-06-19T11:12:57;24.90;16.50
67974;DHT22;54756;51.140;6.952;2023-06-19T11:14:58;24.90;16.60
67974;DHT22;54756;51.140;6.952;2023-06-19T11:16:58;25.00;16.80
67974;DHT22;54756;51.140;6.952;2023-06-19T11:19:00;24.90;16.80
67974;DHT22;54756;51.140;6.952;2023-06-19T11:21:01;25.00;16.90
67974;DHT22;54756;51.140;6.952;2023-06-19T11:23:01;25.00;16.90
67974;DHT22;54756;51.140;6.952;2023-06-19T11:25:03;25.00;16.80
67974;DHT22;54756;51.140;6.952;2023-06-19T11:27:04;25.00;16.80
67974;DHT22;54756;51.140;6.952;2023-06-19T11:29:19;25.00;16.90
67974;DHT22;54756;51.140;6.952;2023-06-19T11:31:26;25.00;16.90
67974;DHT22;54756;51.140;6.952;2023-06-19T11:33:27;25.00;16.90
67974;DHT22;54756;51.140;6.952;2023-06-19T11:35:34;25.00;16.90
67974;DHT22;54756;51.140;6.952;2023-06-19T11:37:37;25.00;16.90
67974;DHT22;54756;51.140;6.952;2023-06-19T11:39:37;25.00;16.90
67974;DHT22;54756;51.140;6.952;2023-06-19T11:41:38;25.00;16.90
67974;DHT22;54756;51.140;6.952;2023-06-19T11:43:39;25.10;16.80
67974;DHT22;54756;51.140;6.952;2023-06-19T11:45:47;25.10;16.80
67974;DHT22;54756;51.140;6.952;2023-06-19T11:47:49;25.10;16.70
67974;DHT22;54756;51.140;6.952;2023-06-19T11:49:50;25.10;16.70
67974;DHT22;54756;51.140;6.952;2023-06-19T11:51:51;25.10;16.70
67974;DHT22;54756;51.140;6.952;2023-06-19T11:53:51;25.10;16.80
67974;DHT22;54756;51.140;6.952;2023-06-19T11:55:52;25.10;16.90
67974;DHT22;54756;51.140;6.952;2023-06-19T11:57:53;25.10;16.90
67974;DHT22;54756;51.140;6.952;2023-06-19T11:59:53;25.10;16.80
67974;DHT22;54756;51.140;6.952;2023-06-19T12:01:54;25.10;16.80
67974;DHT22;54756;51.140;6.952;2023-06-19T12:03:57;25.10;16.80
67974;DHT22;54756;51.140;6.952;2023-06-19T12:05:57;25.10;16.70
67974;DHT22;54756;51.140;6.952;2023-06-19T12:07:58;25.20;16.70
67974;DHT22;54756;51.140;6.952;2023-06-19T12:09:58;25.20;16.60
67974;DHT22;54756;51.140;6.952;2023-06-19T12:11:59;25.20;16.60
67974;DHT22;54756;51.140;6.952;2023-06-19T12:14:00;25.20;16.50
67974;DHT22;54756;51.140;6.952;2023-06-19T12:16:01;25.20;16.50
67974;DHT22;54756;51.140;6.952;2023-06-19T12:18:02;25.20;16.50
67974;DHT22;54756;51.140;6.952;2023-06-19T12:20:04;25.20;16.40
67974;DHT22;54756;51.140;6.952;2023-06-19T12:22:06;25.20;16.30
67974;DHT22;54756;51.140;6.952;2023-06-19T12:24:06;25.20;16.20
67974;DHT22;54756;51.140;6.952;2023-06-19T12:26:07;25.30;16.20
67974;DHT22;54756;51.140;6.952;2023-06-19T12:28:07;25.30;16.20
67974;DHT22;54756;51.140;6.952;2023-06-19T12:30:08;25.30;16.10
67974;DHT22;54756;51.140;6.952;2023-06-19T12:32:09;25.30;16.20
67974;DHT22;54756;51.140;6.952;2023-06-19T12:34:10;25.30;16.30
67974;DHT22;54756;51.140;6.952;2023-06-19T12:36:11;25.30;16.20
67974;DHT22;54756;51.140;6.952;2023-06-19T12:38:15;25.30;16.20
67974;DHT22;54756;51.140;6.952;2023-06-19T12:40:15;25.30;16.20
67974;DHT22;54756;51.140;6.952;2023-06-19T12:42:17;25.30;16.30
67974;DHT22;54756;51.140;6.952;2023-06-19T12:44:18;25.30;16.30
67974;DHT22;54756;51.140;6.952;2023-06-19T12:46:19;25.40;16.30
67974;DHT22;54756;51.140;6.952;2023-06-19T12:48:19;25.30;16.10
67974;DHT22;54756;51.140;6.952;2023-06-19T12:50:20;25.40;16.30
67974;DHT22;54756;51.140;6.952;2023-06-19T12:52:20;25.40;16.30